createdAt,value
2023-03-29T00:00:33.468Z,99767.31
2023-03-29T00:02:59.872Z,99760.22
2023-03-29T00:05:26.321Z,99758.81
2023-03-29T00:07:52.623Z,99763.03
2023-03-29T00:10:18.940Z,99761.09
2023-03-29T00:12:45.301Z,99766.41
2023-03-29T00:15:11.624Z,99758.00
2023-03-29T00:17:37.978Z,99763.31
2023-03-29T00:20:04.355Z,99753.84
2023-03-29T00:22:30.685Z,99751.91
2023-03-29T00:24:56.991Z,99751.81
2023-03-29T00:27:23.363Z,99746.13
2023-03-29T00:29:49.709Z,99737.75
2023-03-29T00:32:16.063Z,99741.75
2023-03-29T00:34:42.455Z,99742.78
2023-03-29T00:37:09.204Z,99737.66
2023-03-29T00:39:35.531Z,99741.38
2023-03-29T00:42:01.873Z,99739.78
2023-03-29T00:44:28.327Z,99739.19
2023-03-29T00:46:54.895Z,99737.00
2023-03-29T00:49:21.300Z,99727.56
2023-03-29T00:51:48.127Z,99733.19
2023-03-29T00:54:14.640Z,99719.44
2023-03-29T00:56:42.066Z,99716.41
2023-03-29T00:59:08.425Z,99714.44
2023-03-29T01:01:34.816Z,99710.63
2023-03-29T01:04:01.409Z,99704.91
2023-03-29T01:06:27.802Z,99707.53
2023-03-29T01:08:55.408Z,99702.66
2023-03-29T01:11:21.776Z,99713.28
2023-03-29T01:13:48.134Z,99714.00
2023-03-29T01:16:14.463Z,99711.78
2023-03-29T01:18:40.915Z,99716.63
2023-03-29T01:21:07.316Z,99717.09
2023-03-29T01:23:33.650Z,99716.19
2023-03-29T01:26:00.036Z,99715.84
2023-03-29T01:28:26.689Z,99709.31
2023-03-29T01:30:53.180Z,99705.50
2023-03-29T01:33:19.538Z,99700.84
2023-03-29T01:35:45.899Z,99705.06
2023-03-29T01:38:12.222Z,99694.81
2023-03-29T01:40:38.612Z,99687.47
2023-03-29T01:43:04.958Z,99683.41
2023-03-29T01:45:31.295Z,99689.50
2023-03-29T01:47:57.962Z,99687.50
2023-03-29T01:50:24.348Z,99690.66
2023-03-29T01:52:50.672Z,99690.34
2023-03-29T01:55:17.033Z,99687.53
2023-03-29T01:57:43.353Z,99692.34
2023-03-29T02:00:09.678Z,99701.09
2023-03-29T02:02:37.863Z,99701.56
2023-03-29T02:05:04.351Z,99700.72
2023-03-29T02:07:30.766Z,99701.63
2023-03-29T02:09:57.255Z,99696.72
2023-03-29T02:12:23.644Z,99700.19
2023-03-29T02:14:50.027Z,99700.72
2023-03-29T02:17:16.385Z,99695.41
2023-03-29T02:19:42.799Z,99694.34
2023-03-29T02:22:09.130Z,99693.50
2023-03-29T02:24:35.501Z,99697.03
2023-03-29T02:27:02.120Z,99701.50
2023-03-29T02:29:28.471Z,99698.66
2023-03-29T02:31:57.429Z,99697.75
2023-03-29T02:34:23.753Z,99700.03
2023-03-29T02:36:50.084Z,99706.19
2023-03-29T02:39:16.445Z,99705.88
2023-03-29T02:41:42.804Z,99705.97
2023-03-29T02:44:09.217Z,99706.88
2023-03-29T02:46:35.647Z,99711.81
2023-03-29T02:49:02.015Z,99706.59
2023-03-29T02:51:28.316Z,99705.88
2023-03-29T02:53:54.709Z,99706.22
2023-03-29T02:56:21.075Z,99694.44
2023-03-29T02:58:47.398Z,99700.28
2023-03-29T03:01:13.776Z,99701.97
2023-03-29T03:03:40.237Z,99699.22
2023-03-29T03:06:06.919Z,99696.06
2023-03-29T03:08:33.344Z,99695.28
2023-03-29T03:10:59.833Z,99692.91
2023-03-29T03:13:26.471Z,99690.22
2023-03-29T03:15:53.046Z,99693.47
2023-03-29T03:18:19.576Z,99684.81
2023-03-29T03:20:46.000Z,99685.13
2023-03-29T03:23:12.462Z,99683.22
2023-03-29T03:25:39.052Z,99685.63
2023-03-29T03:28:05.514Z,99692.13
2023-03-29T03:30:32.137Z,99690.75
2023-03-29T03:33:16.937Z,99684.72
2023-03-29T03:36:01.996Z,99685.78
2023-03-29T03:38:29.316Z,99689.84
2023-03-29T03:40:57.828Z,99690.88
2023-03-29T03:43:24.775Z,99694.63
2023-03-29T03:45:51.315Z,99695.41
2023-03-29T03:48:21.363Z,99683.94
2023-03-29T03:50:56.973Z,99686.00
2023-03-29T03:53:24.970Z,99689.56
2023-03-29T03:56:14.687Z,99684.44
2023-03-29T03:58:59.586Z,99688.47
2023-03-29T04:01:27.708Z,99690.38
2023-03-29T04:04:03.474Z,99691.91
2023-03-29T04:06:31.029Z,99686.13
2023-03-29T04:09:16.071Z,99692.91
2023-03-29T04:11:48.163Z,99697.31
2023-03-29T04:14:14.990Z,99690.22
2023-03-29T04:16:53.533Z,99694.06
2023-03-29T04:19:47.821Z,99696.72
2023-03-29T04:22:14.429Z,99695.34
2023-03-29T04:24:41.775Z,99691.53
2023-03-29T04:27:28.273Z,99689.84
2023-03-29T04:29:55.318Z,99691.94
2023-03-29T04:32:39.847Z,99680.56
2023-03-29T04:35:08.456Z,99687.13
2023-03-29T04:37:34.946Z,99689.81
2023-03-29T04:40:01.464Z,99693.03
2023-03-29T04:42:34.637Z,99694.28
2023-03-29T04:45:01.172Z,99692.31
2023-03-29T04:47:46.156Z,99688.13
2023-03-29T04:50:16.652Z,99689.19
2023-03-29T04:52:44.586Z,99683.66
2023-03-29T04:55:11.743Z,99694.09
2023-03-29T04:57:47.899Z,99689.47
2023-03-29T05:00:27.432Z,99690.50
2023-03-29T05:02:54.029Z,99686.28
2023-03-29T05:05:21.300Z,99685.22
2023-03-29T05:07:49.314Z,99685.44
2023-03-29T05:10:19.317Z,99699.31
2023-03-29T05:12:45.807Z,99688.59
2023-03-29T05:15:12.372Z,99685.31
2023-03-29T05:17:38.905Z,99687.13
2023-03-29T05:20:09.958Z,99683.16
2023-03-29T05:22:36.645Z,99689.84
2023-03-29T05:25:03.154Z,99688.25
2023-03-29T05:27:29.659Z,99689.25
2023-03-29T05:30:02.789Z,99684.44
2023-03-29T05:32:39.897Z,99692.16
2023-03-29T05:35:07.848Z,99689.75
2023-03-29T05:37:34.837Z,99690.25
2023-03-29T05:40:06.040Z,99685.75
2023-03-29T05:42:40.161Z,99684.13
2023-03-29T05:45:08.580Z,99687.03
2023-03-29T05:47:35.037Z,99682.34
2023-03-29T05:50:02.006Z,99684.13
2023-03-29T05:52:28.454Z,99686.84
2023-03-29T05:54:55.654Z,99691.00
2023-03-29T05:57:22.190Z,99688.75
2023-03-29T05:59:48.702Z,99692.66
2023-03-29T06:02:15.185Z,99686.34
2023-03-29T06:04:46.368Z,99697.25
2023-03-29T06:07:15.637Z,99696.09
2023-03-29T06:09:47.188Z,99686.16
2023-03-29T06:12:13.732Z,99688.38
2023-03-29T06:14:52.500Z,99692.47
2023-03-29T06:17:25.989Z,99697.25
2023-03-29T06:19:52.523Z,99693.47
2023-03-29T06:22:21.586Z,99701.44
2023-03-29T06:24:48.216Z,99693.28
2023-03-29T06:27:22.494Z,99698.88
2023-03-29T06:29:49.806Z,99692.63
2023-03-29T06:32:16.333Z,99694.34
2023-03-29T06:34:46.719Z,99684.72
2023-03-29T06:37:22.759Z,99690.66
2023-03-29T06:39:56.458Z,99697.19
2023-03-29T06:42:31.473Z,99705.91
2023-03-29T06:45:24.745Z,99708.75
2023-03-29T06:47:53.500Z,99708.44
2023-03-29T06:50:19.923Z,99706.91
2023-03-29T06:52:53.393Z,99706.56
2023-03-29T06:55:19.769Z,99709.63
2023-03-29T06:57:46.189Z,99707.72
2023-03-29T07:00:12.767Z,99712.53
2023-03-29T07:02:59.132Z,99699.78
2023-03-29T07:05:25.676Z,99696.97
2023-03-29T07:07:52.079Z,99709.44
2023-03-29T07:10:26.136Z,99704.31
2023-03-29T07:13:12.853Z,99710.56
2023-03-29T07:15:39.872Z,99706.34
2023-03-29T07:18:19.216Z,99706.03
2023-03-29T07:20:45.697Z,99703.97
2023-03-29T07:23:12.082Z,99706.53
2023-03-29T07:25:38.512Z,99706.72
2023-03-29T07:28:04.960Z,99705.94
2023-03-29T07:30:32.482Z,99694.63
2023-03-29T07:33:20.467Z,99694.38
2023-03-29T07:35:53.323Z,99694.63
2023-03-29T07:38:19.842Z,99692.34
2023-03-29T07:40:51.611Z,99689.53
2023-03-29T07:43:39.784Z,99685.56
2023-03-29T07:46:06.441Z,99684.91
2023-03-29T07:48:34.484Z,99688.00
2023-03-29T07:51:04.707Z,99694.06
2023-03-29T07:53:39.498Z,99674.09
2023-03-29T07:56:13.423Z,99672.66
2023-03-29T07:59:06.030Z,99676.44
2023-03-29T08:01:32.673Z,99672.84
2023-03-29T08:04:14.330Z,99677.69
2023-03-29T08:07:07.169Z,99683.81
2023-03-29T08:09:53.612Z,99668.81
2023-03-29T08:12:27.047Z,99664.50
2023-03-29T08:14:56.097Z,99663.59
2023-03-29T08:17:29.962Z,99671.16
2023-03-29T08:19:57.255Z,99659.28
2023-03-29T08:22:24.266Z,99663.66
2023-03-29T08:25:07.169Z,99663.44
2023-03-29T08:27:38.309Z,99653.47
2023-03-29T08:30:05.341Z,99658.56
2023-03-29T08:32:34.275Z,99648.84
2023-03-29T08:35:00.885Z,99655.16
2023-03-29T08:37:34.887Z,99644.03
2023-03-29T08:40:01.385Z,99645.44
2023-03-29T08:42:50.581Z,99647.63
2023-03-29T08:45:19.315Z,99647.09
2023-03-29T08:47:47.965Z,99649.91
2023-03-29T08:50:14.495Z,99639.75
2023-03-29T08:52:44.546Z,99634.28
2023-03-29T08:55:25.037Z,99628.84
2023-03-29T08:58:11.435Z,99625.75
2023-03-29T09:00:37.855Z,99622.81
2023-03-29T09:03:04.541Z,99621.94
2023-03-29T09:05:31.071Z,99619.97
2023-03-29T09:08:08.874Z,99619.88
2023-03-29T09:10:35.381Z,99622.16
2023-03-29T09:13:02.020Z,99622.31
2023-03-29T09:15:28.699Z,99616.16
2023-03-29T09:18:21.293Z,99624.41
2023-03-29T09:20:47.748Z,99611.53
2023-03-29T09:23:14.548Z,99613.97
2023-03-29T09:26:01.011Z,99608.47
2023-03-29T09:28:42.075Z,99610.44
2023-03-29T09:31:08.585Z,99608.53
2023-03-29T09:33:35.018Z,99609.06
2023-03-29T09:36:07.197Z,99609.19
2023-03-29T09:38:35.056Z,99610.66
2023-03-29T09:41:01.777Z,99596.97
2023-03-29T09:43:28.584Z,99603.47
2023-03-29T09:45:55.249Z,99609.34
2023-03-29T09:48:21.778Z,99610.78
2023-03-29T09:50:53.824Z,99606.22
2023-03-29T09:53:20.634Z,99604.44
2023-03-29T09:56:07.291Z,99614.25
2023-03-29T09:58:42.547Z,99607.81
2023-03-29T10:01:09.024Z,99607.41
2023-03-29T10:03:36.122Z,99600.38
2023-03-29T10:06:22.088Z,99587.59
2023-03-29T10:08:52.880Z,99585.78
2023-03-29T10:11:21.517Z,99591.88
2023-03-29T10:13:47.955Z,99583.41
2023-03-29T10:16:14.494Z,99584.88
2023-03-29T10:18:40.923Z,99581.13
2023-03-29T10:21:07.357Z,99589.06
2023-03-29T10:23:33.811Z,99581.34
2023-03-29T10:26:00.168Z,99580.81
2023-03-29T10:28:26.596Z,99573.53
2023-03-29T10:30:53.037Z,99580.38
2023-03-29T10:33:19.413Z,99578.75
2023-03-29T10:35:45.862Z,99568.09
2023-03-29T10:38:12.207Z,99574.22
2023-03-29T10:40:38.614Z,99567.00
2023-03-29T10:43:05.088Z,99561.78
2023-03-29T10:45:31.472Z,99551.19
2023-03-29T10:47:57.941Z,99546.16
2023-03-29T10:50:24.447Z,99554.88
2023-03-29T10:52:50.794Z,99539.63
2023-03-29T10:55:17.169Z,99544.88
2023-03-29T10:57:43.592Z,99536.44
2023-03-29T11:00:09.960Z,99531.59
2023-03-29T11:02:36.425Z,99532.31
2023-03-29T11:05:02.913Z,99524.97
2023-03-29T11:07:29.620Z,99525.22
2023-03-29T11:09:56.062Z,99517.94
2023-03-29T11:12:22.458Z,99509.84
2023-03-29T11:14:48.841Z,99505.16
2023-03-29T11:17:15.249Z,99502.16
2023-03-29T11:19:41.690Z,99510.75
2023-03-29T11:22:08.084Z,99504.16
2023-03-29T11:24:34.440Z,99513.44
2023-03-29T11:27:00.840Z,99497.84
2023-03-29T11:29:27.204Z,99500.34
2023-03-29T11:31:53.609Z,99491.47
2023-03-29T11:34:20.129Z,99487.72
2023-03-29T11:36:46.527Z,99478.91
2023-03-29T11:39:12.909Z,99474.47
2023-03-29T11:41:39.372Z,99476.78
2023-03-29T11:44:05.748Z,99477.50
2023-03-29T11:46:32.208Z,99465.41
2023-03-29T11:48:58.742Z,99478.66
2023-03-29T11:51:25.117Z,99462.09
2023-03-29T11:53:51.479Z,99470.41
2023-03-29T11:56:17.939Z,99468.81
2023-03-29T11:58:44.332Z,99467.41
2023-03-29T12:01:10.708Z,99445.44
2023-03-29T12:03:37.279Z,99454.22
2023-03-29T12:06:03.723Z,99453.19
2023-03-29T12:08:30.220Z,99453.59
2023-03-29T12:10:56.783Z,99457.78
2023-03-29T12:13:23.186Z,99439.59
2023-03-29T12:15:49.583Z,99431.28
2023-03-29T12:18:15.997Z,99446.94
2023-03-29T12:20:42.496Z,99449.31
2023-03-29T12:23:11.611Z,99431.94
2023-03-29T12:25:38.074Z,99427.53
2023-03-29T12:28:04.483Z,99431.94
2023-03-29T12:30:32.524Z,99435.84
2023-03-29T12:33:00.363Z,99440.38
2023-03-29T12:35:45.715Z,99437.53
2023-03-29T12:38:31.040Z,99419.31
2023-03-29T12:41:16.322Z,99428.28
2023-03-29T12:44:01.750Z,99421.47
2023-03-29T12:47:03.463Z,99416.19
2023-03-29T12:49:29.951Z,99419.84
2023-03-29T12:51:56.328Z,99414.03
2023-03-29T12:54:22.708Z,99421.56
2023-03-29T12:56:49.256Z,99412.97
2023-03-29T12:59:15.655Z,99426.38
2023-03-29T13:01:42.102Z,99415.34
2023-03-29T13:04:08.542Z,99420.06
2023-03-29T13:06:34.901Z,99408.25
2023-03-29T13:09:01.265Z,99397.22
2023-03-29T13:11:27.663Z,99385.75
2023-03-29T13:13:54.053Z,99387.72
2023-03-29T13:16:20.454Z,99381.41
2023-03-29T13:18:47.022Z,99380.63
2023-03-29T13:21:13.421Z,99387.25
2023-03-29T13:23:39.791Z,99365.94
2023-03-29T13:26:06.205Z,99370.66
2023-03-29T13:28:32.570Z,99360.34
2023-03-29T13:30:58.979Z,99356.03
2023-03-29T13:33:25.378Z,99348.47
2023-03-29T13:35:51.779Z,99339.41
2023-03-29T13:38:18.174Z,99346.44
2023-03-29T13:40:44.583Z,99338.09
2023-03-29T13:43:10.942Z,99338.09
2023-03-29T13:45:37.301Z,99346.72
2023-03-29T13:48:05.383Z,99335.25
2023-03-29T13:50:32.273Z,99334.03
2023-03-29T13:52:58.642Z,99337.13
2023-03-29T13:55:24.963Z,99344.50
2023-03-29T13:57:51.283Z,99344.06
2023-03-29T14:00:17.632Z,99340.50
2023-03-29T14:02:45.077Z,99342.47
2023-03-29T14:05:12.488Z,99343.19
2023-03-29T14:07:38.817Z,99346.66
2023-03-29T14:10:05.192Z,99340.69
2023-03-29T14:12:31.603Z,99334.41
2023-03-29T14:14:59.510Z,99340.25
2023-03-29T14:17:26.042Z,99338.22
2023-03-29T14:19:52.386Z,99337.75
2023-03-29T14:22:18.690Z,99332.97
2023-03-29T14:24:45.075Z,99332.97
2023-03-29T14:27:11.399Z,99334.13
2023-03-29T14:29:37.764Z,99327.06
2023-03-29T14:32:04.354Z,99328.19
2023-03-29T14:34:30.848Z,99312.84
2023-03-29T14:36:57.360Z,99320.66
2023-03-29T14:39:23.990Z,99314.72
2023-03-29T14:41:50.513Z,99315.06
2023-03-29T14:44:16.978Z,99319.41
2023-03-29T14:46:43.572Z,99313.47
2023-03-29T14:49:10.168Z,99315.44
2023-03-29T14:51:36.552Z,99306.72
2023-03-29T14:54:02.901Z,99310.63
2023-03-29T14:56:29.235Z,99311.31
2023-03-29T14:58:55.586Z,99308.56
2023-03-29T15:01:21.960Z,99301.84
2023-03-29T15:03:48.341Z,99297.88
2023-03-29T15:06:14.742Z,99302.19
2023-03-29T15:08:45.814Z,99296.63
2023-03-29T15:11:17.455Z,99298.50
2023-03-29T15:13:43.828Z,99296.53
2023-03-29T15:16:10.252Z,99296.44
2023-03-29T15:18:36.725Z,99307.34
2023-03-29T15:21:03.118Z,99292.72
2023-03-29T15:23:29.445Z,99292.66
2023-03-29T15:25:55.780Z,99296.91
2023-03-29T15:28:22.218Z,99282.25
2023-03-29T15:30:57.364Z,99278.25
2023-03-29T15:33:31.433Z,99273.00
2023-03-29T15:35:57.857Z,99270.16
2023-03-29T15:38:33.180Z,99275.56
2023-03-29T15:41:07.319Z,99264.84
2023-03-29T15:43:33.716Z,99267.47
2023-03-29T15:46:00.256Z,99270.53
2023-03-29T15:48:26.744Z,99275.94
2023-03-29T15:50:53.053Z,99265.97
2023-03-29T15:53:19.380Z,99263.78
2023-03-29T15:55:45.772Z,99269.69
2023-03-29T15:58:12.319Z,99269.16
2023-03-29T16:00:38.933Z,99265.53
2023-03-29T16:03:05.461Z,99258.69
2023-03-29T16:05:31.839Z,99248.31
2023-03-29T16:07:58.153Z,99258.38
2023-03-29T16:10:24.526Z,99255.91
2023-03-29T16:12:50.898Z,99251.44
2023-03-29T16:15:17.293Z,99248.50
2023-03-29T16:17:43.859Z,99254.56
2023-03-29T16:20:10.259Z,99258.38
2023-03-29T16:22:36.569Z,99246.47
2023-03-29T16:25:02.974Z,99242.06
2023-03-29T16:27:29.364Z,99237.25
2023-03-29T16:29:55.786Z,99240.25
2023-03-29T16:32:22.362Z,99248.38
2023-03-29T16:34:48.828Z,99256.53
2023-03-29T16:37:15.135Z,99263.84
2023-03-29T16:39:41.505Z,99263.75
2023-03-29T16:42:07.838Z,99275.75
2023-03-29T16:44:34.165Z,99268.22
2023-03-29T16:47:00.742Z,99265.72
2023-03-29T16:49:27.149Z,99275.78
2023-03-29T16:51:53.489Z,99259.22
2023-03-29T16:54:19.878Z,99264.13
2023-03-29T16:56:46.254Z,99259.31
2023-03-29T16:59:12.589Z,99252.13
2023-03-29T17:01:39.025Z,99258.66
2023-03-29T17:04:05.523Z,99253.75
2023-03-29T17:06:31.888Z,99258.31
2023-03-29T17:08:58.300Z,99267.59
2023-03-29T17:11:24.678Z,99257.19
2023-03-29T17:13:51.021Z,99266.44
2023-03-29T17:16:17.506Z,99263.13
2023-03-29T17:18:43.913Z,99265.75
2023-03-29T17:21:10.279Z,99275.81
2023-03-29T17:23:36.661Z,99264.25
2023-03-29T17:26:03.164Z,99271.91
2023-03-29T17:28:29.571Z,99274.88
2023-03-29T17:30:56.067Z,99274.28
2023-03-29T17:33:22.911Z,99278.38
2023-03-29T17:35:49.381Z,99287.63
2023-03-29T17:38:15.822Z,99291.25
2023-03-29T17:40:42.255Z,99284.38
2023-03-29T17:43:08.597Z,99284.59
2023-03-29T17:45:35.040Z,99288.69
2023-03-29T17:48:02.388Z,99295.50
2023-03-29T17:50:30.522Z,99294.13
2023-03-29T17:52:56.925Z,99281.28
2023-03-29T17:55:23.252Z,99290.97
2023-03-29T17:57:49.603Z,99289.25
2023-03-29T18:00:16.002Z,99281.25
2023-03-29T18:02:42.448Z,99282.22
2023-03-29T18:05:08.848Z,99278.44
2023-03-29T18:07:35.276Z,99271.59
2023-03-29T18:10:01.589Z,99279.97
2023-03-29T18:12:27.903Z,99280.97
2023-03-29T18:14:54.345Z,99283.06
2023-03-29T18:17:20.671Z,99284.88
2023-03-29T18:19:46.984Z,99286.22
2023-03-29T18:22:13.397Z,99290.28
2023-03-29T18:24:39.719Z,99291.59
2023-03-29T18:27:06.019Z,99301.16
2023-03-29T18:29:32.457Z,99300.84
2023-03-29T18:31:58.857Z,99295.09
2023-03-29T18:34:25.210Z,99288.22
2023-03-29T18:36:51.724Z,99289.19
2023-03-29T18:39:18.056Z,99300.66
2023-03-29T18:41:44.378Z,99305.19
2023-03-29T18:44:10.797Z,99299.88
2023-03-29T18:46:37.314Z,99297.81
2023-03-29T18:49:03.751Z,99300.41
2023-03-29T18:51:30.158Z,99301.38
2023-03-29T18:53:56.494Z,99298.81
2023-03-29T18:56:22.867Z,99300.56
2023-03-29T18:58:49.332Z,99303.16
2023-03-29T19:01:15.715Z,99305.28
2023-03-29T19:03:42.231Z,99300.47
2023-03-29T19:06:08.797Z,99308.81
2023-03-29T19:08:35.148Z,99303.22
2023-03-29T19:11:01.471Z,99290.19
2023-03-29T19:13:27.870Z,99298.25
2023-03-29T19:15:54.306Z,99297.28
2023-03-29T19:18:20.660Z,99290.06
2023-03-29T19:20:47.022Z,99288.31
2023-03-29T19:23:13.362Z,99288.47
2023-03-29T19:25:39.721Z,99289.09
2023-03-29T19:28:06.081Z,99286.22
2023-03-29T19:30:32.442Z,99289.47
2023-03-29T19:32:58.861Z,99296.38
2023-03-29T19:35:25.390Z,99303.91
2023-03-29T19:37:51.748Z,99306.97
2023-03-29T19:40:18.081Z,99301.19
2023-03-29T19:42:44.447Z,99309.22
2023-03-29T19:45:10.785Z,99311.00
2023-03-29T19:47:37.191Z,99305.69
2023-03-29T19:50:03.651Z,99295.69
2023-03-29T19:52:29.998Z,99289.44
2023-03-29T19:54:56.334Z,99290.88
2023-03-29T19:57:22.866Z,99292.28
2023-03-29T19:59:49.219Z,99288.13
2023-03-29T20:02:15.560Z,99280.91
2023-03-29T20:04:42.005Z,99278.34
2023-03-29T20:07:08.352Z,99274.16
2023-03-29T20:09:34.695Z,99275.13
2023-03-29T20:12:01.063Z,99276.06
2023-03-29T20:14:27.420Z,99277.00
2023-03-29T20:16:54.202Z,99268.16
2023-03-29T20:19:20.762Z,99266.06
2023-03-29T20:21:47.079Z,99262.38
2023-03-29T20:24:13.392Z,99264.94
2023-03-29T20:26:39.777Z,99263.97
2023-03-29T20:29:06.128Z,99274.69
2023-03-29T20:31:32.492Z,99265.56
2023-03-29T20:33:58.897Z,99265.19
2023-03-29T20:36:25.347Z,99261.22
2023-03-29T20:38:51.752Z,99255.91
2023-03-29T20:41:18.125Z,99255.72
2023-03-29T20:43:44.462Z,99254.72
2023-03-29T20:46:10.891Z,99255.31
2023-03-29T20:48:37.293Z,99254.38
2023-03-29T20:51:03.852Z,99253.38
2023-03-29T20:53:30.378Z,99254.00
2023-03-29T20:55:56.769Z,99258.47
2023-03-29T20:58:23.091Z,99250.13
2023-03-29T21:00:49.429Z,99254.28
2023-03-29T21:03:15.933Z,99252.19
2023-03-29T21:05:42.390Z,99254.22
2023-03-29T21:08:08.705Z,99247.00
2023-03-29T21:10:35.076Z,99251.78
2023-03-29T21:13:01.427Z,99246.13
2023-03-29T21:15:27.774Z,99239.72
2023-03-29T21:17:54.177Z,99251.75
2023-03-29T21:20:20.512Z,99251.25
2023-03-29T21:22:46.832Z,99252.38
2023-03-29T21:25:13.188Z,99251.84
2023-03-29T21:27:39.494Z,99251.06
2023-03-29T21:30:05.830Z,99253.78
2023-03-29T21:32:32.226Z,99255.19
2023-03-29T21:34:58.558Z,99248.78
2023-03-29T21:37:24.866Z,99251.00
2023-03-29T21:39:51.230Z,99250.00
2023-03-29T21:42:17.554Z,99247.28
2023-03-29T21:44:43.927Z,99247.91
2023-03-29T21:47:10.339Z,99239.56
2023-03-29T21:49:36.644Z,99232.00
2023-03-29T21:52:02.971Z,99231.50
2023-03-29T21:54:29.335Z,99235.69
2023-03-29T21:56:55.681Z,99233.56
2023-03-29T21:59:22.097Z,99229.84
2023-03-29T22:01:48.452Z,99228.25
2023-03-29T22:04:25.589Z,99230.78
2023-03-29T22:06:59.855Z,99219.69
2023-03-29T22:09:26.209Z,99222.25
2023-03-29T22:11:52.541Z,99225.28
2023-03-29T22:14:18.926Z,99210.66
2023-03-29T22:16:45.274Z,99214.78
2023-03-29T22:19:11.603Z,99215.09
2023-03-29T22:21:38.009Z,99205.97
2023-03-29T22:24:04.375Z,99210.91
2023-03-29T22:26:30.700Z,99209.59
2023-03-29T22:28:57.095Z,99208.63
2023-03-29T22:31:23.460Z,99210.81
2023-03-29T22:33:49.838Z,99211.44
2023-03-29T22:36:16.502Z,99205.50
2023-03-29T22:38:42.958Z,99198.28
2023-03-29T22:41:09.288Z,99198.91
2023-03-29T22:43:35.644Z,99206.53
2023-03-29T22:46:01.982Z,99191.66
2023-03-29T22:48:28.339Z,99193.06
2023-03-29T22:50:54.708Z,99194.78
2023-03-29T22:53:21.022Z,99190.44
2023-03-29T22:55:47.354Z,99192.69
2023-03-29T22:58:13.715Z,99191.38
2023-03-29T23:00:40.055Z,99188.16
2023-03-29T23:03:06.400Z,99193.41
2023-03-29T23:05:32.782Z,99195.63
2023-03-29T23:07:59.101Z,99192.41
2023-03-29T23:10:25.451Z,99190.31
2023-03-29T23:12:51.923Z,99193.31
2023-03-29T23:15:18.277Z,99169.19
2023-03-29T23:17:44.649Z,99184.78
2023-03-29T23:20:11.060Z,99187.00
2023-03-29T23:22:37.408Z,99187.00
2023-03-29T23:25:03.772Z,99176.75
2023-03-29T23:27:30.126Z,99176.75
2023-03-29T23:29:56.460Z,99182.47
2023-03-29T23:32:22.792Z,99176.56
2023-03-29T23:34:49.237Z,99176.56
2023-03-29T23:37:15.551Z,99178.75
2023-03-29T23:39:41.874Z,99170.91
2023-03-29T23:42:08.252Z,99176.34
2023-03-29T23:44:34.635Z,99171.72
2023-03-29T23:47:01.105Z,99172.81
2023-03-29T23:49:27.586Z,99175.34
2023-03-29T23:51:54.066Z,99167.50
2023-03-29T23:54:20.440Z,99167.00
2023-03-29T23:56:46.848Z,99162.97
2023-03-29T23:59:13.213Z,99173.66
